sensor_id;sensor_type;location;lat;lon;timestamp;temperature;humidity
4564;DHT22;2294;51.818;8.484;2023-04-24T00:01:23;12.40;99.90
4564;DHT22;2294;51.818;8.484;2023-04-24T00:03:50;12.40;99.90
4564;DHT22;2294;51.818;8.484;2023-04-24T00:06:16;12.40;99.90
4564;DHT22;2294;51.818;8.484;2023-04-24T00:08:43;12.40;99.90
4564;DHT22;2294;51.818;8.484;2023-04-24T00:11:10;12.40;99.90
4564;DHT22;2294;51.818;8.484;2023-04-24T00:13:37;12.40;99.90
4564;DHT22;2294;51.818;8.484;2023-04-24T00:16:06;12.30;99.90
4564;DHT22;2294;51.818;8.484;2023-04-24T00:18:33;12.00;99.90
4564;DHT22;2294;51.818;8.484;2023-04-24T00:21:00;11.90;99.90
4564;DHT22;2294;51.818;8.484;2023-04-24T00:23:28;11.90;99.90
4564;DHT22;2294;51.818;8.484;2023-04-24T00:25:55;11.90;99.90
4564;DHT22;2294;51.818;8.484;2023-04-24T00:28:22;11.90;99.90
4564;DHT22;2294;51.818;8.484;2023-04-24T00:30:48;11.90;99.90
4564;DHT22;2294;51.818;8.484;2023-04-24T00:33:17;11.90;99.90
4564;DHT22;2294;51.818;8.484;2023-04-24T00:35:44;11.90;99.90
4564;DHT22;2294;51.818;8.484;2023-04-24T00:38:10;11.80;99.90
4564;DHT22;2294;51.818;8.484;2023-04-24T00:40:37;11.80;99.90
4564;DHT22;2294;51.818;8.484;2023-04-24T00:43:04;11.80;99.90
4564;DHT22;2294;51.818;8.484;2023-04-24T00:45:31;11.80;99.90
4564;DHT22;2294;51.818;8.484;2023-04-24T00:48:00;11.70;99.90
4564;DHT22;2294;51.818;8.484;2023-04-24T00:50:29;11.80;99.90
4564;DHT22;2294;51.818;8.484;2023-04-24T00:52:56;11.90;99.90
4564;DHT22;2294;51.818;8.484;2023-04-24T00:55:24;11.90;99.90
4564;DHT22;2294;51.818;8.484;2023-04-24T00:57:52;11.90;99.90
4564;DHT22;2294;51.818;8.484;2023-04-24T01:00:19;11.80;99.90
4564;DHT22;2294;51.818;8.484;2023-04-24T01:02:46;11.60;99.90
4564;DHT22;2294;51.818;8.484;2023-04-24T01:05:14;11.50;99.90
4564;DHT22;2294;51.818;8.484;2023-04-24T01:07:45;11.40;99.90
4564;DHT22;2294;51.818;8.484;2023-04-24T01:10:14;11.40;99.90
4564;DHT22;2294;51.818;8.484;2023-04-24T01:12:42;11.30;99.90
4564;DHT22;2294;51.818;8.484;2023-04-24T01:15:10;11.30;99.90
4564;DHT22;2294;51.818;8.484;2023-04-24T01:17:37;11.30;99.90
4564;DHT22;2294;51.818;8.484;2023-04-24T01:20:05;11.20;99.90
4564;DHT22;2294;51.818;8.484;2023-04-24T01:22:34;11.30;99.90
4564;DHT22;2294;51.818;8.484;2023-04-24T01:25:01;11.20;99.90
4564;DHT22;2294;51.818;8.484;2023-04-24T01:27:28;11.20;99.90
4564;DHT22;2294;51.818;8.484;2023-04-24T01:29:55;11.20;99.90
4564;DHT22;2294;51.818;8.484;2023-04-24T01:32:24;11.10;99.90
4564;DHT22;2294;51.818;8.484;2023-04-24T01:34:50;11.30;99.90
4564;DHT22;2294;51.818;8.484;2023-04-24T01:37:17;11.40;99.90
4564;DHT22;2294;51.818;8.484;2023-04-24T01:39:46;11.40;99.90
4564;DHT22;2294;51.818;8.484;2023-04-24T01:42:13;11.50;99.90
4564;DHT22;2294;51.818;8.484;2023-04-24T01:44:40;11.50;99.90
4564;DHT22;2294;51.818;8.484;2023-04-24T01:47:08;11.50;99.90
4564;DHT22;2294;51.818;8.484;2023-04-24T01:49:35;11.50;99.90
4564;DHT22;2294;51.818;8.484;2023-04-24T01:52:03;11.60;99.90
4564;DHT22;2294;51.818;8.484;2023-04-24T01:54:30;11.50;99.90
4564;DHT22;2294;51.818;8.484;2023-04-24T01:56:59;11.50;99.90
4564;DHT22;2294;51.818;8.484;2023-04-24T01:59:28;11.70;99.90
4564;DHT22;2294;51.818;8.484;2023-04-24T02:01:55;11.60;99.90
4564;DHT22;2294;51.818;8.484;2023-04-24T02:04:22;11.60;99.90
4564;DHT22;2294;51.818;8.484;2023-04-24T02:06:48;11.50;99.90
4564;DHT22;2294;51.818;8.484;2023-04-24T02:09:16;11.40;99.90
4564;DHT22;2294;51.818;8.484;2023-04-24T02:11:43;11.50;99.90
4564;DHT22;2294;51.818;8.484;2023-04-24T02:14:11;11.50;99.90
4564;DHT22;2294;51.818;8.484;2023-04-24T02:16:38;11.60;99.90
4564;DHT22;2294;51.818;8.484;2023-04-24T02:19:05;11.50;99.90
4564;DHT22;2294;51.818;8.484;2023-04-24T02:21:32;11.50;99.90
4564;DHT22;2294;51.818;8.484;2023-04-24T02:24:00;11.70;99.90
4564;DHT22;2294;51.818;8.484;2023-04-24T02:26:26;11.80;99.90
4564;DHT22;2294;51.818;8.484;2023-04-24T02:28:53;11.70;99.90
4564;DHT22;2294;51.818;8.484;2023-04-24T02:31:21;11.60;99.90
4564;DHT22;2294;51.818;8.484;2023-04-24T02:33:48;11.50;99.90
4564;DHT22;2294;51.818;8.484;2023-04-24T02:36:15;11.50;99.90
4564;DHT22;2294;51.818;8.484;2023-04-24T02:38:42;11.60;99.90
4564;DHT22;2294;51.818;8.484;2023-04-24T02:41:09;11.70;99.90
4564;DHT22;2294;51.818;8.484;2023-04-24T02:43:36;11.80;99.90
4564;DHT22;2294;51.818;8.484;2023-04-24T02:46:03;11.90;99.90
4564;DHT22;2294;51.818;8.484;2023-04-24T02:48:32;11.80;99.90
4564;DHT22;2294;51.818;8.484;2023-04-24T02:50:59;11.80;99.90
4564;DHT22;2294;51.818;8.484;2023-04-24T02:53:26;11.60;99.90
4564;DHT22;2294;51.818;8.484;2023-04-24T02:55:53;11.60;99.90
4564;DHT22;2294;51.818;8.484;2023-04-24T02:58:20;11.60;99.90
4564;DHT22;2294;51.818;8.484;2023-04-24T03:00:46;11.80;99.90
4564;DHT22;2294;51.818;8.484;2023-04-24T03:03:13;11.90;99.90
4564;DHT22;2294;51.818;8.484;2023-04-24T03:05:42;11.90;99.90
4564;DHT22;2294;51.818;8.484;2023-04-24T03:08:09;12.00;99.90
4564;DHT22;2294;51.818;8.484;2023-04-24T03:10:36;12.00;99.90
4564;DHT22;2294;51.818;8.484;2023-04-24T03:13:03;12.00;99.90
4564;DHT22;2294;51.818;8.484;2023-04-24T03:15:30;12.00;99.90
4564;DHT22;2294;51.818;8.484;2023-04-24T03:17:57;11.90;99.90
4564;DHT22;2294;51.818;8.484;2023-04-24T03:20:24;11.90;99.90
4564;DHT22;2294;51.818;8.484;2023-04-24T03:22:52;11.90;99.90
4564;DHT22;2294;51.818;8.484;2023-04-24T03:25:19;11.80;99.90
4564;DHT22;2294;51.818;8.484;2023-04-24T03:27:46;11.80;99.90
4564;DHT22;2294;51.818;8.484;2023-04-24T03:30:13;11.70;99.90
4564;DHT22;2294;51.818;8.484;2023-04-24T03:32:40;11.80;99.90
4564;DHT22;2294;51.818;8.484;2023-04-24T03:35:07;11.80;99.90
4564;DHT22;2294;51.818;8.484;2023-04-24T03:37:34;11.80;99.90
4564;DHT22;2294;51.818;8.484;2023-04-24T03:40:03;11.80;99.90
4564;DHT22;2294;51.818;8.484;2023-04-24T03:45:00;11.80;99.90
4564;DHT22;2294;51.818;8.484;2023-04-24T03:47:26;11.80;99.90
4564;DHT22;2294;51.818;8.484;2023-04-24T03:49:53;11.80;99.90
4564;DHT22;2294;51.818;8.484;2023-04-24T03:52:21;11.70;99.90
4564;DHT22;2294;51.818;8.484;2023-04-24T03:54:48;11.70;99.90
4564;DHT22;2294;51.818;8.484;2023-04-24T03:57:16;11.60;99.90
4564;DHT22;2294;51.818;8.484;2023-04-24T03:59:43;11.60;99.90
4564;DHT22;2294;51.818;8.484;2023-04-24T04:02:10;11.60;99.90
4564;DHT22;2294;51.818;8.484;2023-04-24T04:04:37;11.60;99.90
4564;DHT22;2294;51.818;8.484;2023-04-24T04:07:04;11.50;99.90
4564;DHT22;2294;51.818;8.484;2023-04-24T04:09:30;11.50;99.90
4564;DHT22;2294;51.818;8.484;2023-04-24T04:11:58;11.50;99.90
4564;DHT22;2294;51.818;8.484;2023-04-24T04:14:27;11.40;99.90
4564;DHT22;2294;51.818;8.484;2023-04-24T04:16:54;11.40;99.90
4564;DHT22;2294;51.818;8.484;2023-04-24T04:19:21;11.30;99.90
4564;DHT22;2294;51.818;8.484;2023-04-24T04:21:48;11.40;99.90
4564;DHT22;2294;51.818;8.484;2023-04-24T04:24:18;11.30;99.90
4564;DHT22;2294;51.818;8.484;2023-04-24T04:26:46;11.20;99.90
4564;DHT22;2294;51.818;8.484;2023-04-24T04:29:13;11.20;99.90
4564;DHT22;2294;51.818;8.484;2023-04-24T04:31:42;11.10;99.90
4564;DHT22;2294;51.818;8.484;2023-04-24T04:34:09;11.00;99.90
4564;DHT22;2294;51.818;8.484;2023-04-24T04:36:37;10.90;99.90
4564;DHT22;2294;51.818;8.484;2023-04-24T04:39:05;10.90;99.90
4564;DHT22;2294;51.818;8.484;2023-04-24T04:41:33;10.90;99.90
4564;DHT22;2294;51.818;8.484;2023-04-24T04:44:01;10.90;99.90
4564;DHT22;2294;51.818;8.484;2023-04-24T04:46:30;10.90;99.90
4564;DHT22;2294;51.818;8.484;2023-04-24T04:49:01;10.90;99.90
4564;DHT22;2294;51.818;8.484;2023-04-24T04:51:28;10.70;99.90
4564;DHT22;2294;51.818;8.484;2023-04-24T04:53:55;10.60;99.90
4564;DHT22;2294;51.818;8.484;2023-04-24T04:56:22;10.40;99.90
4564;DHT22;2294;51.818;8.484;2023-04-24T04:58:49;10.30;99.90
4564;DHT22;2294;51.818;8.484;2023-04-24T05:01:16;10.30;99.90
4564;DHT22;2294;51.818;8.484;2023-04-24T05:03:43;10.40;99.90
4564;DHT22;2294;51.818;8.484;2023-04-24T05:06:12;10.30;99.90
4564;DHT22;2294;51.818;8.484;2023-04-24T05:08:39;10.50;99.90
4564;DHT22;2294;51.818;8.484;2023-04-24T05:11:08;10.60;99.90
4564;DHT22;2294;51.818;8.484;2023-04-24T05:13:35;10.60;99.90
4564;DHT22;2294;51.818;8.484;2023-04-24T05:16:02;10.50;99.90
4564;DHT22;2294;51.818;8.484;2023-04-24T05:18:29;10.50;99.90
4564;DHT22;2294;51.818;8.484;2023-04-24T05:20:55;10.50;99.90
4564;DHT22;2294;51.818;8.484;2023-04-24T05:23:24;10.50;99.90
4564;DHT22;2294;51.818;8.484;2023-04-24T05:25:51;10.60;99.90
4564;DHT22;2294;51.818;8.484;2023-04-24T05:28:17;10.60;99.90
4564;DHT22;2294;51.818;8.484;2023-04-24T05:30:45;10.70;99.90
4564;DHT22;2294;51.818;8.484;2023-04-24T05:33:12;10.60;99.90
4564;DHT22;2294;51.818;8.484;2023-04-24T05:35:40;10.80;99.90
4564;DHT22;2294;51.818;8.484;2023-04-24T05:38:11;10.70;99.90
4564;DHT22;2294;51.818;8.484;2023-04-24T05:40:39;10.60;99.90
4564;DHT22;2294;51.818;8.484;2023-04-24T05:43:06;10.50;99.90
4564;DHT22;2294;51.818;8.484;2023-04-24T05:45:33;10.50;99.90
4564;DHT22;2294;51.818;8.484;2023-04-24T05:48:01;10.50;99.90
4564;DHT22;2294;51.818;8.484;2023-04-24T05:50:28;10.80;99.90
4564;DHT22;2294;51.818;8.484;2023-04-24T05:52:55;10.90;99.90
4564;DHT22;2294;51.818;8.484;2023-04-24T05:55:23;10.80;99.90
4564;DHT22;2294;51.818;8.484;2023-04-24T05:57:52;10.90;99.90
4564;DHT22;2294;51.818;8.484;2023-04-24T06:00:19;11.00;99.90
4564;DHT22;2294;51.818;8.484;2023-04-24T06:02:46;11.00;99.90
4564;DHT22;2294;51.818;8.484;2023-04-24T06:05:13;11.10;99.90
4564;DHT22;2294;51.818;8.484;2023-04-24T06:07:40;11.10;99.90
4564;DHT22;2294;51.818;8.484;2023-04-24T06:10:08;11.10;99.90
4564;DHT22;2294;51.818;8.484;2023-04-24T06:12:35;11.10;99.90
4564;DHT22;2294;51.818;8.484;2023-04-24T06:15:04;11.20;99.90
4564;DHT22;2294;51.818;8.484;2023-04-24T06:17:31;11.20;99.90
4564;DHT22;2294;51.818;8.484;2023-04-24T06:19:58;11.20;99.90
4564;DHT22;2294;51.818;8.484;2023-04-24T06:22:25;11.20;99.90
4564;DHT22;2294;51.818;8.484;2023-04-24T06:24:52;11.20;99.90
4564;DHT22;2294;51.818;8.484;2023-04-24T06:27:19;11.10;99.90
4564;DHT22;2294;51.818;8.484;2023-04-24T06:29:45;11.00;99.90
4564;DHT22;2294;51.818;8.484;2023-04-24T06:32:19;10.90;99.90
4564;DHT22;2294;51.818;8.484;2023-04-24T06:34:46;11.00;99.90
4564;DHT22;2294;51.818;8.484;2023-04-24T06:37:13;10.90;99.90
4564;DHT22;2294;51.818;8.484;2023-04-24T06:39:41;11.00;99.90
4564;DHT22;2294;51.818;8.484;2023-04-24T06:42:08;11.00;99.90
4564;DHT22;2294;51.818;8.484;2023-04-24T06:44:35;11.10;99.90
4564;DHT22;2294;51.818;8.484;2023-04-24T06:47:06;11.20;99.90
4564;DHT22;2294;51.818;8.484;2023-04-24T06:49:35;11.20;99.90
4564;DHT22;2294;51.818;8.484;2023-04-24T06:52:02;11.10;99.90
4564;DHT22;2294;51.818;8.484;2023-04-24T06:54:29;11.10;99.90
4564;DHT22;2294;51.818;8.484;2023-04-24T06:56:56;11.00;99.90
4564;DHT22;2294;51.818;8.484;2023-04-24T06:59:23;11.00;99.90
4564;DHT22;2294;51.818;8.484;2023-04-24T07:01:50;10.90;99.90
4564;DHT22;2294;51.818;8.484;2023-04-24T07:04:17;11.00;99.90
4564;DHT22;2294;51.818;8.484;2023-04-24T07:06:46;11.00;99.90
4564;DHT22;2294;51.818;8.484;2023-04-24T07:09:14;11.00;99.90
4564;DHT22;2294;51.818;8.484;2023-04-24T07:11:43;11.00;99.90
4564;DHT22;2294;51.818;8.484;2023-04-24T07:14:10;11.00;99.90
4564;DHT22;2294;51.818;8.484;2023-04-24T07:16:37;11.00;99.90
4564;DHT22;2294;51.818;8.484;2023-04-24T07:19:04;11.00;99.90
4564;DHT22;2294;51.818;8.484;2023-04-24T07:21:32;11.00;99.90
4564;DHT22;2294;51.818;8.484;2023-04-24T07:24:00;11.10;99.90
4564;DHT22;2294;51.818;8.484;2023-04-24T07:26:30;11.10;99.90
4564;DHT22;2294;51.818;8.484;2023-04-24T07:28:57;11.00;99.90
4564;DHT22;2294;51.818;8.484;2023-04-24T07:31:24;10.90;99.90
4564;DHT22;2294;51.818;8.484;2023-04-24T07:33:51;11.00;99.90
4564;DHT22;2294;51.818;8.484;2023-04-24T07:36:18;11.00;99.90
4564;DHT22;2294;51.818;8.484;2023-04-24T07:38:45;11.00;99.90
4564;DHT22;2294;51.818;8.484;2023-04-24T07:41:14;11.00;99.90
4564;DHT22;2294;51.818;8.484;2023-04-24T07:43:41;11.40;99.90
4564;DHT22;2294;51.818;8.484;2023-04-24T07:46:08;11.40;99.90
4564;DHT22;2294;51.818;8.484;2023-04-24T07:48:36;11.40;99.90
4564;DHT22;2294;51.818;8.484;2023-04-24T07:51:03;11.40;99.90
4564;DHT22;2294;51.818;8.484;2023-04-24T07:53:30;11.20;99.90
4564;DHT22;2294;51.818;8.484;2023-04-24T07:55:57;11.50;99.90
4564;DHT22;2294;51.818;8.484;2023-04-24T07:58:25;11.40;99.90
4564;DHT22;2294;51.818;8.484;2023-04-24T08:00:52;11.20;99.90
4564;DHT22;2294;51.818;8.484;2023-04-24T08:03:19;11.20;99.90
4564;DHT22;2294;51.818;8.484;2023-04-24T08:05:46;11.00;99.90
4564;DHT22;2294;51.818;8.484;2023-04-24T08:08:13;11.00;99.90
4564;DHT22;2294;51.818;8.484;2023-04-24T08:10:40;10.90;99.90
4564;DHT22;2294;51.818;8.484;2023-04-24T08:13:07;10.70;99.90
4564;DHT22;2294;51.818;8.484;2023-04-24T08:15:35;10.70;99.90
4564;DHT22;2294;51.818;8.484;2023-04-24T08:18:02;10.90;99.90
4564;DHT22;2294;51.818;8.484;2023-04-24T08:20:29;10.90;99.90
4564;DHT22;2294;51.818;8.484;2023-04-24T08:22:56;11.10;99.90
4564;DHT22;2294;51.818;8.484;2023-04-24T08:25:23;11.30;99.90
4564;DHT22;2294;51.818;8.484;2023-04-24T08:27:50;11.30;99.90
4564;DHT22;2294;51.818;8.484;2023-04-24T08:30:18;11.60;99.90
4564;DHT22;2294;51.818;8.484;2023-04-24T08:32:46;11.70;99.90
4564;DHT22;2294;51.818;8.484;2023-04-24T08:35:13;11.70;99.90
4564;DHT22;2294;51.818;8.484;2023-04-24T08:37:40;11.50;99.90
4564;DHT22;2294;51.818;8.484;2023-04-24T08:40:13;11.50;99.90
4564;DHT22;2294;51.818;8.484;2023-04-24T08:42:42;11.30;99.90
4564;DHT22;2294;51.818;8.484;2023-04-24T08:45:10;11.40;99.90
4564;DHT22;2294;51.818;8.484;2023-04-24T08:47:38;11.40;99.90
4564;DHT22;2294;51.818;8.484;2023-04-24T08:50:08;11.40;99.90
4564;DHT22;2294;51.818;8.484;2023-04-24T08:52:35;11.20;99.90
4564;DHT22;2294;51.818;8.484;2023-04-24T08:55:03;11.30;99.90
4564;DHT22;2294;51.818;8.484;2023-04-24T08:57:31;11.20;99.90
4564;DHT22;2294;51.818;8.484;2023-04-24T08:59:59;11.10;99.90
4564;DHT22;2294;51.818;8.484;2023-04-24T09:02:26;11.10;99.90
4564;DHT22;2294;51.818;8.484;2023-04-24T09:04:53;11.10;99.90
4564;DHT22;2294;51.818;8.484;2023-04-24T09:07:24;11.10;99.90
4564;DHT22;2294;51.818;8.484;2023-04-24T09:09:52;11.30;99.90
4564;DHT22;2294;51.818;8.484;2023-04-24T09:12:19;11.40;99.90
4564;DHT22;2294;51.818;8.484;2023-04-24T09:14:46;11.30;99.90
4564;DHT22;2294;51.818;8.484;2023-04-24T09:17:14;11.20;99.90
4564;DHT22;2294;51.818;8.484;2023-04-24T09:19:41;11.30;99.90
4564;DHT22;2294;51.818;8.484;2023-04-24T09:22:09;11.30;99.90
4564;DHT22;2294;51.818;8.484;2023-04-24T09:24:38;11.10;99.90
4564;DHT22;2294;51.818;8.484;2023-04-24T09:27:05;11.00;99.90
4564;DHT22;2294;51.818;8.484;2023-04-24T09:29:33;11.10;99.90
4564;DHT22;2294;51.818;8.484;2023-04-24T09:32:18;11.30;99.90
4564;DHT22;2294;51.818;8.484;2023-04-24T09:34:47;11.40;99.90
4564;DHT22;2294;51.818;8.484;2023-04-24T09:37:27;11.90;99.90
4564;DHT22;2294;51.818;8.484;2023-04-24T09:40:09;12.40;99.90
4564;DHT22;2294;51.818;8.484;2023-04-24T09:42:37;12.20;99.90
4564;DHT22;2294;51.818;8.484;2023-04-24T09:45:06;12.70;99.90
4564;DHT22;2294;51.818;8.484;2023-04-24T09:47:36;12.50;99.90
4564;DHT22;2294;51.818;8.484;2023-04-24T09:50:09;12.70;99.90
4564;DHT22;2294;51.818;8.484;2023-04-24T09:52:40;12.50;99.90
4564;DHT22;2294;51.818;8.484;2023-04-24T09:55:16;12.60;99.90
4564;DHT22;2294;51.818;8.484;2023-04-24T09:57:51;12.00;99.90
4564;DHT22;2294;51.818;8.484;2023-04-24T10:00:20;11.60;99.90
4564;DHT22;2294;51.818;8.484;2023-04-24T10:02:55;11.50;99.90
4564;DHT22;2294;51.818;8.484;2023-04-24T10:05:27;11.30;99.90
4564;DHT22;2294;51.818;8.484;2023-04-24T10:08:00;11.00;99.90
4564;DHT22;2294;51.818;8.484;2023-04-24T10:10:29;10.80;99.90
4564;DHT22;2294;51.818;8.484;2023-04-24T10:15:23;10.70;99.90
4564;DHT22;2294;51.818;8.484;2023-04-24T10:17:51;10.70;99.90
4564;DHT22;2294;51.818;8.484;2023-04-24T10:20:23;10.60;99.90
4564;DHT22;2294;51.818;8.484;2023-04-24T10:22:52;10.70;99.90
4564;DHT22;2294;51.818;8.484;2023-04-24T10:25:20;11.00;99.90
4564;DHT22;2294;51.818;8.484;2023-04-24T10:27:50;11.50;99.90
4564;DHT22;2294;51.818;8.484;2023-04-24T10:30:17;11.30;99.90
4564;DHT22;2294;51.818;8.484;2023-04-24T10:32:44;10.60;99.90
4564;DHT22;2294;51.818;8.484;2023-04-24T10:35:13;10.40;99.90
4564;DHT22;2294;51.818;8.484;2023-04-24T10:37:44;10.40;99.90
4564;DHT22;2294;51.818;8.484;2023-04-24T10:40:16;10.30;99.90
4564;DHT22;2294;51.818;8.484;2023-04-24T10:42:49;10.50;99.90
4564;DHT22;2294;51.818;8.484;2023-04-24T10:45:19;10.50;99.90
4564;DHT22;2294;51.818;8.484;2023-04-24T10:47:54;10.40;99.90
4564;DHT22;2294;51.818;8.484;2023-04-24T10:50:23;10.50;99.90
4564;DHT22;2294;51.818;8.484;2023-04-24T10:52:50;10.40;99.90
4564;DHT22;2294;51.818;8.484;2023-04-24T10:55:40;10.30;99.90
4564;DHT22;2294;51.818;8.484;2023-04-24T10:58:09;10.30;99.90
4564;DHT22;2294;51.818;8.484;2023-04-24T11:00:37;10.60;99.90
4564;DHT22;2294;51.818;8.484;2023-04-24T11:03:05;10.90;99.90
4564;DHT22;2294;51.818;8.484;2023-04-24T11:05:56;10.90;99.90
4564;DHT22;2294;51.818;8.484;2023-04-24T11:08:29;11.10;99.90
4564;DHT22;2294;51.818;8.484;2023-04-24T11:11:02;11.40;99.90
4564;DHT22;2294;51.818;8.484;2023-04-24T11:14:04;11.20;99.90
4564;DHT22;2294;51.818;8.484;2023-04-24T11:16:33;10.90;99.90
4564;DHT22;2294;51.818;8.484;2023-04-24T11:19:02;10.90;99.90
4564;DHT22;2294;51.818;8.484;2023-04-24T11:21:39;11.40;99.90
4564;DHT22;2294;51.818;8.484;2023-04-24T11:24:25;11.00;99.90
4564;DHT22;2294;51.818;8.484;2023-04-24T11:26:53;11.20;99.90
4564;DHT22;2294;51.818;8.484;2023-04-24T11:29:22;11.50;99.90
4564;DHT22;2294;51.818;8.484;2023-04-24T11:31:49;11.80;99.90
4564;DHT22;2294;51.818;8.484;2023-04-24T11:34:18;11.50;99.90
4564;DHT22;2294;51.818;8.484;2023-04-24T11:36:45;11.60;99.90
4564;DHT22;2294;51.818;8.484;2023-04-24T11:39:13;11.80;99.90
4564;DHT22;2294;51.818;8.484;2023-04-24T11:41:41;11.40;99.90
4564;DHT22;2294;51.818;8.484;2023-04-24T11:44:09;11.50;99.90
4564;DHT22;2294;51.818;8.484;2023-04-24T11:46:37;11.50;99.90
4564;DHT22;2294;51.818;8.484;2023-04-24T11:49:05;11.30;99.90
4564;DHT22;2294;51.818;8.484;2023-04-24T11:51:32;11.20;99.90
4564;DHT22;2294;51.818;8.484;2023-04-24T11:54:00;11.20;99.90
4564;DHT22;2294;51.818;8.484;2023-04-24T11:56:27;11.40;99.90
4564;DHT22;2294;51.818;8.484;2023-04-24T11:58:54;11.40;99.90
4564;DHT22;2294;51.818;8.484;2023-04-24T12:01:21;11.20;99.90
4564;DHT22;2294;51.818;8.484;2023-04-24T12:03:50;11.30;99.90
4564;DHT22;2294;51.818;8.484;2023-04-24T12:06:17;11.10;99.90
4564;DHT22;2294;51.818;8.484;2023-04-24T12:08:48;10.90;99.90
4564;DHT22;2294;51.818;8.484;2023-04-24T12:11:16;10.80;99.90
4564;DHT22;2294;51.818;8.484;2023-04-24T12:13:44;10.70;99.90
4564;DHT22;2294;51.818;8.484;2023-04-24T12:16:12;11.10;99.90
4564;DHT22;2294;51.818;8.484;2023-04-24T12:18:43;11.10;99.90
4564;DHT22;2294;51.818;8.484;2023-04-24T12:21:19;10.50;99.90
4564;DHT22;2294;51.818;8.484;2023-04-24T12:23:47;10.70;99.90
4564;DHT22;2294;51.818;8.484;2023-04-24T12:26:16;10.50;99.90
4564;DHT22;2294;51.818;8.484;2023-04-24T12:28:47;10.60;99.90
4564;DHT22;2294;51.818;8.484;2023-04-24T12:31:15;10.60;99.90
4564;DHT22;2294;51.818;8.484;2023-04-24T12:33:42;10.70;99.90
4564;DHT22;2294;51.818;8.484;2023-04-24T12:36:10;10.90;99.90
4564;DHT22;2294;51.818;8.484;2023-04-24T12:38:41;11.10;99.90
4564;DHT22;2294;51.818;8.484;2023-04-24T12:41:12;11.30;99.90
4564;DHT22;2294;51.818;8.484;2023-04-24T12:43:51;11.10;99.90
4564;DHT22;2294;51.818;8.484;2023-04-24T12:46:18;11.00;99.90
4564;DHT22;2294;51.818;8.484;2023-04-24T12:48:45;11.40;99.90
4564;DHT22;2294;51.818;8.484;2023-04-24T12:51:12;11.60;99.90
4564;DHT22;2294;51.818;8.484;2023-04-24T12:53:40;11.60;99.90
4564;DHT22;2294;51.818;8.484;2023-04-24T12:56:07;11.60;99.90
4564;DHT22;2294;51.818;8.484;2023-04-24T12:58:33;11.90;99.90
4564;DHT22;2294;51.818;8.484;2023-04-24T13:01:00;12.30;99.90
4564;DHT22;2294;51.818;8.484;2023-04-24T13:03:27;12.00;99.90
4564;DHT22;2294;51.818;8.484;2023-04-24T13:05:54;11.90;99.90
4564;DHT22;2294;51.818;8.484;2023-04-24T13:08:21;11.90;99.90
4564;DHT22;2294;51.818;8.484;2023-04-24T13:10:50;11.90;99.90
4564;DHT22;2294;51.818;8.484;2023-04-24T13:13:17;11.80;99.90
4564;DHT22;2294;51.818;8.484;2023-04-24T13:15:44;12.10;99.90
4564;DHT22;2294;51.818;8.484;2023-04-24T13:18:11;11.90;99.90
4564;DHT22;2294;51.818;8.484;2023-04-24T13:20:38;12.10;99.90
4564;DHT22;2294;51.818;8.484;2023-04-24T13:23:06;11.80;99.90
4564;DHT22;2294;51.818;8.484;2023-04-24T13:25:35;12.10;99.90
4564;DHT22;2294;51.818;8.484;2023-04-24T13:28:04;12.10;99.90
4564;DHT22;2294;51.818;8.484;2023-04-24T13:30:31;11.70;99.90
4564;DHT22;2294;51.818;8.484;2023-04-24T13:32:58;12.00;99.90
4564;DHT22;2294;51.818;8.484;2023-04-24T13:35:25;11.80;99.90
4564;DHT22;2294;51.818;8.484;2023-04-24T13:37:52;11.90;99.90
4564;DHT22;2294;51.818;8.484;2023-04-24T13:40:19;12.20;99.90
4564;DHT22;2294;51.818;8.484;2023-04-24T13:42:45;12.40;99.90
4564;DHT22;2294;51.818;8.484;2023-04-24T13:45:14;12.30;99.90
4564;DHT22;2294;51.818;8.484;2023-04-24T13:47:41;12.00;99.90
4564;DHT22;2294;51.818;8.484;2023-04-24T13:50:08;12.20;99.90
4564;DHT22;2294;51.818;8.484;2023-04-24T13:52:35;12.30;99.90
4564;DHT22;2294;51.818;8.484;2023-04-24T13:55:03;12.10;99.90
4564;DHT22;2294;51.818;8.484;2023-04-24T13:57:30;12.00;99.90
4564;DHT22;2294;51.818;8.484;2023-04-24T13:59:58;11.90;99.90
4564;DHT22;2294;51.818;8.484;2023-04-24T14:02:28;11.70;99.90
4564;DHT22;2294;51.818;8.484;2023-04-24T14:04:54;12.10;99.90
4564;DHT22;2294;51.818;8.484;2023-04-24T14:07:22;11.60;99.90
4564;DHT22;2294;51.818;8.484;2023-04-24T14:09:49;11.80;99.90
4564;DHT22;2294;51.818;8.484;2023-04-24T14:12:16;11.80;99.90
4564;DHT22;2294;51.818;8.484;2023-04-24T14:14:46;11.90;99.90
4564;DHT22;2294;51.818;8.484;2023-04-24T14:17:13;11.60;99.90
4564;DHT22;2294;51.818;8.484;2023-04-24T14:19:41;12.00;99.90
4564;DHT22;2294;51.818;8.484;2023-04-24T14:22:09;11.80;99.90
4564;DHT22;2294;51.818;8.484;2023-04-24T14:24:36;11.80;99.90
4564;DHT22;2294;51.818;8.484;2023-04-24T14:27:03;11.50;99.90
4564;DHT22;2294;51.818;8.484;2023-04-24T14:29:29;11.50;99.90
4564;DHT22;2294;51.818;8.484;2023-04-24T14:31:56;11.70;99.90
4564;DHT22;2294;51.818;8.484;2023-04-24T14:34:23;11.60;99.90
4564;DHT22;2294;51.818;8.484;2023-04-24T14:36:52;11.70;99.90
4564;DHT22;2294;51.818;8.484;2023-04-24T14:39:20;11.60;99.90
4564;DHT22;2294;51.818;8.484;2023-04-24T14:41:47;11.50;99.90
4564;DHT22;2294;51.818;8.484;2023-04-24T14:44:14;11.00;99.90
4564;DHT22;2294;51.818;8.484;2023-04-24T14:46:41;11.20;99.90
4564;DHT22;2294;51.818;8.484;2023-04-24T14:49:08;11.00;99.90
4564;DHT22;2294;51.818;8.484;2023-04-24T14:51:37;10.90;99.90
4564;DHT22;2294;51.818;8.484;2023-04-24T14:54:05;10.90;99.90
4564;DHT22;2294;51.818;8.484;2023-04-24T14:56:32;10.80;99.90
4564;DHT22;2294;51.818;8.484;2023-04-24T14:58:59;10.90;99.90
4564;DHT22;2294;51.818;8.484;2023-04-24T15:01:26;10.70;99.90
4564;DHT22;2294;51.818;8.484;2023-04-24T15:03:53;10.60;99.90
4564;DHT22;2294;51.818;8.484;2023-04-24T15:06:19;10.60;99.90
4564;DHT22;2294;51.818;8.484;2023-04-24T15:08:46;10.40;99.90
4564;DHT22;2294;51.818;8.484;2023-04-24T15:11:15;10.40;99.90
4564;DHT22;2294;51.818;8.484;2023-04-24T15:13:41;10.40;99.90
4564;DHT22;2294;51.818;8.484;2023-04-24T15:16:10;10.20;99.90
4564;DHT22;2294;51.818;8.484;2023-04-24T15:18:37;10.30;99.90
4564;DHT22;2294;51.818;8.484;2023-04-24T15:21:04;10.30;99.90
4564;DHT22;2294;51.818;8.484;2023-04-24T15:23:31;10.20;99.90
4564;DHT22;2294;51.818;8.484;2023-04-24T15:25:57;10.30;99.90
4564;DHT22;2294;51.818;8.484;2023-04-24T15:28:26;10.30;99.90
4564;DHT22;2294;51.818;8.484;2023-04-24T15:30:53;10.50;99.90
4564;DHT22;2294;51.818;8.484;2023-04-24T15:33:20;10.60;99.90
4564;DHT22;2294;51.818;8.484;2023-04-24T15:35:47;10.80;99.90
4564;DHT22;2294;51.818;8.484;2023-04-24T15:38:14;10.80;99.90
4564;DHT22;2294;51.818;8.484;2023-04-24T15:40:41;10.90;99.90
4564;DHT22;2294;51.818;8.484;2023-04-24T15:43:08;10.80;99.90
4564;DHT22;2294;51.818;8.484;2023-04-24T15:45:36;10.80;99.90
4564;DHT22;2294;51.818;8.484;2023-04-24T15:48:03;10.60;99.90
4564;DHT22;2294;51.818;8.484;2023-04-24T15:50:30;10.80;99.90
4564;DHT22;2294;51.818;8.484;2023-04-24T15:52:56;11.10;99.90
4564;DHT22;2294;51.818;8.484;2023-04-24T15:55:23;10.90;99.90
4564;DHT22;2294;51.818;8.484;2023-04-24T15:57:50;10.80;99.90
4564;DHT22;2294;51.818;8.484;2023-04-24T16:00:18;10.80;99.90
4564;DHT22;2294;51.818;8.484;2023-04-24T16:02:47;10.90;99.90
4564;DHT22;2294;51.818;8.484;2023-04-24T16:05:15;10.70;99.90
4564;DHT22;2294;51.818;8.484;2023-04-24T16:07:44;10.70;99.90
4564;DHT22;2294;51.818;8.484;2023-04-24T16:10:11;10.80;99.90
4564;DHT22;2294;51.818;8.484;2023-04-24T16:12:38;10.60;99.90